Accueil
METAR-TAF:

METAR-TAF

Aéroports :

Trévise, Italie

latitude: 45-41N, longitude: 012-06E, altitude: 45 m

Observation

Le bulletin a été fait il y a 45 minutes, à 23:55 UTC
Vent 2 kt de nord/nord-est
Température 10°C
Humidité 93%
Pression 1015 hPa
Visibilité 10 km ou plus
pas de nuages en-dessous de 1500 mètres et pas de cumulonimbus.

METAR: LIPS 232355Z 02002KT CAVOK 10/09 Q1015 RMK SKC VIS MIN 9999 WIND THR26 36003KT WIND THR08 36003KT BLU

Heure: 02:40 (00:40 UTC)

Prévision

Le bulletin a été fait il y a 1 heure et 40 minutes, à 23:00 UTC
Prévision valable du 24 à 00 UTC au 24 à 09 UTC
Vent 4 kt de direction variable
Visibilité 10 km ou plus
pas de nuages en-dessous de 1500 mètres et pas de cumulonimbus.
Probabilité 40% :
Temporairement
du 24 à 00 UTC au 24 à 06 UTC
Visibilité: 5000 m
brume

TAF: LIPS 232300Z 2400/2409 VRB04KT CAVOK PROB40 TEMPO 2400/2406 5000 BR NSC

Observations et prévisions météorologiques de plus de 4000 aéroports (messages METAR et TAF).

Les stations disponibles sont représentées par des disques jaunes et rouges sur la carte.

Passer la souris dessus pour voir le nom de la station.

Cliquer dessus pour voir les observations et prévisions météorologiques.

Pour changer de carte: cliquez sur les boutons verts avec une croix noire pour zoomer, sur le bouton vert avec un tiret pour effectuer un zoom arrière, ou sur les flèches vertes pour les cartes adjacentes.


METAR-TAF: